Time;durP1;ratioP1;P1;durP2;ratioP2;P2;SDS_P1;SDS_P2;PMS_P1;PMS_P2;Temp;Humidity;BMP_temperature;BMP_pressure;BME280_temperature;BME280_humidity;BME280_pressure;Samples;Min_cycle;Max_cycle;Signal;HPM_P1;HPM_P2
2022/08/29 00:00:13;114328.00;0.38;198.30;0.00;0.00;0.62;;;;;23.10;1.00;;;;;;2272605;61;1350;-89
2022/08/29 00:02:39;80341.00;0.27;139.63;0.00;0.00;0.62;;;;;23.00;1.00;;;;;;2272649;61;950;-89
2022/08/29 00:05:07;62094.00;0.21;108.10;0.00;0.00;0.62;;;;;22.90;1.00;;;;;;2272612;61;1466;-88
2022/08/29 00:07:35;1700.00;0.01;3.57;0.00;0.00;0.62;;;;;22.90;1.00;;;;;;2272593;61;1392;-89
2022/08/29 00:10:05;54342.00;0.18;94.69;0.00;0.00;0.62;;;;;22.70;1.00;;;;;;2272556;61;2010;-90
2022/08/29 00:12:34;161262.00;0.54;279.21;0.00;0.00;0.62;;;;;22.80;1.00;;;;;;2272604;61;1130;-87
2022/08/29 00:15:01;99304.00;0.33;172.37;0.00;0.00;0.62;;;;;22.80;1.00;;;;;;2276686;61;1107;-87
2022/08/29 00:17:28;0.00;0.00;0.62;0.00;0.00;0.62;;;;;22.90;1.00;;;;;;2276622;61;1374;-88
2022/08/29 00:19:55;191271.00;0.64;330.90;24731.00;0.08;43.46;;;;;23.00;1.00;;;;;;2276654;61;950;-88
2022/08/29 00:22:22;321619.00;1.07;555.08;0.00;0.00;0.62;;;;;23.10;1.00;;;;;;2276631;61;1151;-88
2022/08/29 00:24:49;740012.00;2.47;1276.70;77742.00;0.26;135.14;;;;;23.30;1.00;;;;;;2276607;61;1120;-88
2022/08/29 00:27:18;1173773.00;3.91;2042.87;31205.00;0.10;54.67;;;;;23.30;1.00;;;;;;2276497;61;1569;-87
2022/08/29 00:29:44;789487.00;2.63;1362.80;64823.00;0.22;112.81;;;;;23.30;1.00;;;;;;2276572;61;1919;-88
2022/08/29 00:32:11;902718.00;3.01;1560.89;41412.00;0.14;72.33;;;;;23.40;1.00;;;;;;2275068;61;1052;-87
2022/08/29 00:34:38;970797.00;3.24;1680.82;172096.00;0.57;297.88;;;;;23.50;1.00;;;;;;2272448;61;1052;-88
2022/08/29 00:37:05;815547.00;2.72;1408.25;164350.00;0.55;284.53;;;;;23.30;1.00;;;;;;2272470;61;1359;-88
2022/08/29 00:39:33;435329.00;1.45;750.55;80392.00;0.27;139.71;;;;;23.30;1.00;;;;;;2272475;61;1527;-89
2022/08/29 00:42:00;320825.00;1.07;553.72;78612.00;0.26;136.64;;;;;23.20;1.00;;;;;;2273330;61;1050;-88
2022/08/29 00:44:28;294392.00;0.98;508.28;65874.00;0.22;114.63;;;;;23.10;1.00;;;;;;2276414;61;1614;-87
2022/08/29 00:47:02;320270.00;1.07;552.76;84776.00;0.28;147.29;;;;;22.90;1.00;;;;;;2276396;61;1376;-86
2022/08/29 00:49:35;357380.00;1.19;616.55;72348.00;0.24;125.82;;;;;22.70;1.00;;;;;;2276408;61;1947;-86
2022/08/29 00:52:11;310680.00;1.04;536.28;58515.00;0.20;101.91;;;;;22.70;1.00;;;;;;2276556;61;1090;-87
2022/08/29 00:54:40;389160.00;1.30;671.17;69055.00;0.23;120.13;;;;;22.80;1.00;;;;;;2276518;61;1639;-88
2022/08/29 00:57:12;288730.00;0.96;498.55;71321.00;0.24;124.04;;;;;22.70;1.00;;;;;;2276441;61;1600;-88
2022/08/29 00:59:41;188187.00;0.63;325.59;74576.00;0.25;129.67;;;;;22.50;1.00;;;;;;2278031;61;1331;-88
2022/08/29 01:02:10;132244.00;0.44;229.20;0.00;0.00;0.62;;;;;22.40;1.00;;;;;;2280538;61;1062;-88
2022/08/29 01:04:38;67350.00;0.22;117.18;0.00;0.00;0.62;;;;;22.50;1.00;;;;;;2280545;61;1035;-86
2022/08/29 01:07:07;141482.00;0.47;245.13;0.00;0.00;0.62;;;;;22.80;1.00;;;;;;2280443;61;1624;-86
2022/08/29 01:09:37;42497.00;0.14;74.21;0.00;0.00;0.62;;;;;22.80;1.00;;;;;;2279352;61;1910;-88
2022/08/29 01:12:15;144087.00;0.48;249.62;0.00;0.00;0.62;;;;;22.70;1.00;;;;;;2276425;61;1608;-87
2022/08/29 01:14:48;104288.00;0.35;180.97;36790.00;0.12;64.33;;;;;22.40;1.00;;;;;;2274516;61;940;-88
2022/08/29 01:17:19;192818.00;0.64;333.56;0.00;0.00;0.62;;;;;22.30;1.00;;;;;;2272385;61;1482;-87
2022/08/29 01:19:53;10791.00;0.04;19.32;0.00;0.00;0.62;;;;;22.30;1.00;;;;;;2272398;61;1573;-87
2022/08/29 01:22:37;317901.00;1.06;548.69;89189.00;0.30;154.91;;;;;22.40;1.00;;;;;;2272356;61;1559;-86
2022/08/29 01:25:11;0.00;0.00;0.62;0.00;0.00;0.62;;;;;22.40;1.00;;;;;;2272358;61;1290;-88
2022/08/29 01:27:43;11161.00;0.04;19.96;0.00;0.00;0.62;;;;;22.60;1.00;;;;;;2272341;61;1471;-88
2022/08/29 01:30:13;47623.00;0.16;83.08;0.00;0.00;0.62;;;;;22.80;1.00;;;;;;2272275;61;1919;-88
2022/08/29 01:32:41;9099.00;0.03;16.39;0.00;0.00;0.62;;;;;22.70;1.00;;;;;;2272391;61;1117;-88
2022/08/29 01:35:08;193456.00;0.64;334.66;0.00;0.00;0.62;;;;;22.80;1.00;;;;;;2272296;61;1518;-88
2022/08/29 01:37:38;34669.00;0.12;60.66;0.00;0.00;0.62;;;;;22.80;1.00;;;;;;2272284;61;1549;-90
2022/08/29 01:40:09;207595.00;0.69;359.00;0.00;0.00;0.62;;;;;22.80;1.00;;;;;;2272305;61;1024;-88
2022/08/29 01:42:36;120208.00;0.40;208.44;0.00;0.00;0.62;;;;;22.70;1.00;;;;;;2273470;61;1143;-87
2022/08/29 01:45:04;130988.00;0.44;227.03;0.00;0.00;0.62;;;;;22.90;1.00;;;;;;2272271;61;1113;-86
2022/08/29 01:47:34;17974.00;0.06;31.76;0.00;0.00;0.62;;;;;22.90;1.00;;;;;;2272208;61;1430;-88
2022/08/29 01:50:02;260790.00;0.87;450.51;0.00;0.00;0.62;;;;;22.90;1.00;;;;;;2272182;61;1981;-88
2022/08/29 01:52:30;297589.00;0.99;513.78;29281.00;0.10;51.34;;;;;22.90;1.00;;;;;;2272283;61;2214;-88
2022/08/29 01:54:58;188629.00;0.63;326.35;0.00;0.00;0.62;;;;;23.00;1.00;;;;;;2272237;61;1525;-87
2022/08/29 01:57:26;81930.00;0.27;142.37;0.00;0.00;0.62;;;;;22.90;1.00;;;;;;2272089;61;1577;-87
2022/08/29 01:59:53;93882.00;0.31;163.01;0.00;0.00;0.62;;;;;22.70;1.00;;;;;;2274941;61;1549;-88
2022/08/29 02:02:25;258814.00;0.86;447.11;0.00;0.00;0.62;;;;;22.70;1.00;;;;;;2276325;61;1038;-89
2022/08/29 02:04:56;0.00;0.00;0.62;0.00;0.00;0.62;;;;;22.60;1.00;;;;;;2276278;61;1125;-87
2022/08/29 02:07:24;129402.00;0.43;224.30;0.00;0.00;0.62;;;;;22.70;1.00;;;;;;2276181;61;1496;-88
2022/08/29 02:09:51;58480.00;0.19;101.85;0.00;0.00;0.62;;;;;22.70;1.00;;;;;;2272503;61;1988;-88
2022/08/29 02:12:20;135924.00;0.45;235.54;0.00;0.00;0.62;;;;;22.60;1.00;;;;;;2272234;61;1031;-87
2022/08/29 02:14:49;0.00;0.00;0.62;0.00;0.00;0.62;;;;;22.20;1.00;;;;;;2272229;61;1110;-88
2022/08/29 02:17:16;13252.00;0.04;23.58;0.00;0.00;0.62;;;;;22.20;1.00;;;;;;2272174;61;1297;-88
2022/08/29 02:19:44;20112.00;0.07;35.46;0.00;0.00;0.62;;;;;22.50;1.00;;;;;;2272225;61;956;-87
2022/08/29 02:22:17;78457.00;0.26;136.37;0.00;0.00;0.62;;;;;22.40;1.00;;;;;;2272150;61;1069;-87
2022/08/29 02:24:44;239576.00;0.80;414.02;0.00;0.00;0.62;;;;;22.40;1.00;;;;;;2272142;61;1555;-88
2022/08/29 02:27:12;231557.00;0.77;400.23;30796.00;0.10;53.96;;;;;22.40;1.00;;;;;;2272142;61;1387;-88
2022/08/29 02:29:41;0.00;0.00;0.62;0.00;0.00;0.62;;;;;22.50;1.00;;;;;;2277916;61;1285;-87
2022/08/29 02:32:13;135513.00;0.45;234.84;48504.00;0.16;84.60;;;;;22.60;1.00;;;;;;2280329;61;1176;-87
2022/08/29 02:34:42;253264.00;0.84;437.56;0.00;0.00;0.62;;;;;22.70;1.00;;;;;;2280354;61;943;-88
2022/08/29 02:37:09;165955.00;0.55;287.30;0.00;0.00;0.62;;;;;22.70;1.00;;;;;;2280259;61;1358;-86
2022/08/29 02:39:36;383248.00;1.28;661.01;39392.00;0.13;68.84;;;;;22.60;1.00;;;;;;2280230;61;982;-88
2022/08/29 02:42:04;918374.00;3.06;1588.41;39371.00;0.13;68.80;;;;;22.20;1.00;;;;;;2280231;61;1740;-87
2022/08/29 02:44:31;1510362.00;5.03;2662.63;62780.00;0.21;109.28;;;;;22.00;1.00;;;;;;2280337;61;1123;-87
2022/08/29 02:47:03;1404330.00;4.68;2464.36;107606.00;0.36;186.70;;;;;21.70;1.00;;;;;;2280125;61;1520;-88
2022/08/29 02:49:31;1222804.00;4.08;2131.50;122765.00;0.41;212.85;;;;;21.80;1.00;;;;;;2280261;61;1137;-86
2022/08/29 02:51:58;1360216.00;4.53;2382.74;134651.00;0.45;233.35;;;;;21.70;1.00;;;;;;2280143;61;2020;-86
2022/08/29 02:54:25;1217314.00;4.06;2121.56;77077.00;0.26;133.99;;;;;21.80;1.00;;;;;;2280189;61;1576;-87
2022/08/29 02:56:54;955839.00;3.19;1654.41;160918.00;0.54;278.62;;;;;21.90;1.00;;;;;;2280288;61;1411;-86
2022/08/29 02:59:21;166346.00;0.55;287.97;68475.00;0.23;119.13;;;;;22.20;1.00;;;;;;2280961;61;1110;-87
2022/08/29 03:01:48;348095.00;1.16;600.59;73082.00;0.24;127.09;;;;;22.30;1.00;;;;;;2280893;61;1409;-88
2022/08/29 03:04:15;222900.00;0.74;385.33;73363.00;0.24;127.57;;;;;22.40;1.00;;;;;;2280948;61;1118;-88
2022/08/29 03:06:44;193397.00;0.64;334.56;68249.00;0.23;118.73;;;;;22.40;1.00;;;;;;2280964;61;1008;-87
2022/08/29 03:09:11;243482.00;0.81;420.74;0.00;0.00;0.62;;;;;22.40;1.00;;;;;;2280906;61;1446;-87
2022/08/29 03:11:41;14586.00;0.05;25.89;0.00;0.00;0.62;;;;;22.40;1.00;;;;;;2280883;61;1923;-87
2022/08/29 03:14:11;401748.00;1.34;692.81;18836.00;0.06;33.25;;;;;22.30;1.00;;;;;;2280838;61;1566;-87
2022/08/29 03:19:08;456627.00;1.52;787.18;39389.00;0.13;68.83;;;;;22.30;1.00;;;;;;2274490;61;1434;-88
2022/08/29 03:21:35;11971.00;0.04;21.36;0.00;0.00;0.62;;;;;22.40;1.00;;;;;;2272797;61;928;-88
2022/08/29 03:24:07;171868.00;0.57;297.48;0.00;0.00;0.62;;;;;22.20;1.00;;;;;;2272703;61;1542;-87
2022/08/29 03:26:36;165257.00;0.55;286.10;0.00;0.00;0.62;;;;;22.20;1.00;;;;;;2272715;61;1467;-86
2022/08/29 03:29:04;120407.00;0.40;208.78;0.00;0.00;0.62;;;;;22.20;1.00;;;;;;2272690;61;1431;-86
2022/08/29 03:31:31;131630.00;0.44;228.14;0.00;0.00;0.62;;;;;22.30;1.00;;;;;;2272593;61;1924;-89
2022/08/29 03:33:58;150571.00;0.50;260.79;0.00;0.00;0.62;;;;;22.10;1.00;;;;;;2272586;61;1399;-88
2022/08/29 03:36:26;70524.00;0.24;122.67;0.00;0.00;0.62;;;;;22.00;1.00;;;;;;2272730;61;1078;-87
2022/08/29 03:38:54;63321.00;0.21;110.22;0.00;0.00;0.62;;;;;21.80;1.00;;;;;;2272656;61;1827;-87
2022/08/29 03:41:24;82863.00;0.28;143.98;0.00;0.00;0.62;;;;;21.80;1.00;;;;;;2272671;61;1083;-86
2022/08/29 03:43:51;12192.00;0.04;21.75;0.00;0.00;0.62;;;;;21.80;1.00;;;;;;2272722;61;1157;-86
2022/08/29 03:46:18;0.00;0.00;0.62;0.00;0.00;0.62;;;;;21.70;1.00;;;;;;2272665;61;915;-88
2022/08/29 03:48:45;122230.00;0.41;211.93;0.00;0.00;0.62;;;;;21.90;1.00;;;;;;2276517;61;1413;-87
2022/08/29 03:51:12;140869.00;0.47;244.07;0.00;0.00;0.62;;;;;21.90;1.00;;;;;;2276662;61;1985;-87
2022/08/29 03:53:40;613067.00;2.04;1056.79;48693.00;0.16;84.93;;;;;21.80;1.00;;;;;;2276679;61;1344;-86
2022/08/29 03:56:08;1129471.00;3.76;1963.21;68323.00;0.23;118.86;;;;;21.90;1.00;;;;;;2276664;61;1576;-86
2022/08/29 03:58:36;1283792.00;4.28;2242.47;29431.00;0.10;51.60;;;;;22.00;1.00;;;;;;2276635;61;1405;-87
2022/08/29 04:01:06;1489736.00;4.97;2623.82;129529.00;0.43;224.52;;;;;21.80;1.00;;;;;;2276687;61;1068;-87
2022/08/29 04:03:33;631582.00;2.11;1088.78;140107.00;0.47;242.76;;;;;22.00;1.00;;;;;;2276643;61;1544;-87
2022/08/29 04:06:00;273325.00;0.91;472.06;78045.00;0.26;135.66;;;;;22.10;1.00;;;;;;2276709;61;1101;-88
2022/08/29 04:08:27;300113.00;1.00;518.11;70911.00;0.24;123.33;;;;;21.90;1.00;;;;;;2276454;61;1363;-87
2022/08/29 04:10:54;379866.00;1.27;655.19;102675.00;0.34;178.19;;;;;21.90;1.00;;;;;;2276527;61;2014;-85
2022/08/29 04:13:21;410705.00;1.37;708.21;100799.00;0.34;174.95;;;;;21.80;1.00;;;;;;2276607;61;1150;-88
2022/08/29 04:15:50;23550.00;0.08;41.42;0.00;0.00;0.62;;;;;21.80;1.00;;;;;;2276608;61;1107;-87
2022/08/29 04:18:17;74209.00;0.25;129.03;0.00;0.00;0.62;;;;;22.00;1.00;;;;;;2276552;61;1265;-87
2022/08/29 04:20:44;88208.00;0.29;153.21;0.00;0.00;0.62;;;;;22.10;1.00;;;;;;2276555;61;1515;-87
2022/08/29 04:23:12;111222.00;0.37;192.94;0.00;0.00;0.62;;;;;22.30;1.00;;;;;;2275647;61;1608;-88
2022/08/29 04:25:40;113500.00;0.38;196.87;0.00;0.00;0.62;;;;;22.20;1.00;;;;;;2272499;61;1341;-87
2022/08/29 04:28:10;198917.00;0.66;344.06;0.00;0.00;0.62;;;;;22.20;1.00;;;;;;2272493;61;1379;-90
2022/08/29 04:30:39;0.00;0.00;0.62;0.00;0.00;0.62;;;;;22.10;1.00;;;;;;2272523;61;1992;-86
2022/08/29 04:33:09;96376.00;0.32;167.32;26323.00;0.09;46.22;;;;;21.80;1.00;;;;;;2272553;61;1119;-85
2022/08/29 04:35:36;7414.00;0.02;13.47;0.00;0.00;0.62;;;;;21.40;1.00;;;;;;2272519;61;1010;-87
2022/08/29 04:38:03;14263.00;0.05;25.33;0.00;0.00;0.62;;;;;21.30;1.00;;;;;;2272183;61;1331;-87
2022/08/29 04:40:30;94859.00;0.32;164.70;12088.00;0.04;21.57;;;;;21.30;1.00;;;;;;2272201;61;971;-86
2022/08/29 04:42:58;32256.00;0.11;56.49;0.00;0.00;0.62;;;;;20.80;1.00;;;;;;2272411;61;1046;-87
2022/08/29 04:45:26;444865.00;1.48;766.95;4581.00;0.02;8.56;;;;;20.60;2.70;;;;;;2272371;61;1046;-88
2022/08/29 04:47:53;1673740.00;5.58;2974.51;136921.00;0.46;237.26;;;;;20.70;1.00;;;;;;2272394;61;1787;-87
2022/08/29 04:50:23;663607.00;2.21;1144.18;33992.00;0.11;59.49;;;;;21.00;2.70;;;;;;2272463;61;1106;-88
2022/08/29 04:52:51;765141.00;2.55;1320.40;134255.00;0.45;232.67;;;;;21.20;1.20;;;;;;2272465;61;2007;-88
2022/08/29 04:55:20;279356.00;0.93;482.43;72798.00;0.24;126.60;;;;;21.30;1.20;;;;;;2272456;61;1448;-86
2022/08/29 04:57:47;197616.00;0.66;341.82;73323.00;0.24;127.50;;;;;21.60;1.00;;;;;;2272452;61;1300;-87
2022/08/29 05:00:18;316173.00;1.05;545.72;75843.00;0.25;131.86;;;;;21.90;1.00;;;;;;2272423;61;1117;-88
2022/08/29 05:02:45;268001.00;0.89;462.91;72269.00;0.24;125.68;;;;;21.80;1.00;;;;;;2272491;61;1077;-87
2022/08/29 05:05:14;139205.00;0.46;241.20;0.00;0.00;0.62;;;;;21.80;1.00;;;;;;2272354;61;1546;-87
2022/08/29 05:07:44;178180.00;0.59;308.36;0.00;0.00;0.62;;;;;22.00;1.00;;;;;;2272369;61;1486;-87
2022/08/29 05:10:16;49718.00;0.17;86.70;0.00;0.00;0.62;;;;;22.10;1.00;;;;;;2272436;61;1027;-87
2022/08/29 05:12:43;47535.00;0.16;82.92;0.00;0.00;0.62;;;;;22.30;1.00;;;;;;2272384;61;1922;-86
2022/08/29 05:15:12;249644.00;0.83;431.34;0.00;0.00;0.62;;;;;22.40;1.00;;;;;;2272397;61;996;-88
2022/08/29 05:17:39;50456.00;0.17;87.97;0.00;0.00;0.62;;;;;22.20;1.00;;;;;;2272327;61;1317;-89
2022/08/29 05:20:07;127567.00;0.43;221.13;0.00;0.00;0.62;;;;;21.80;1.00;;;;;;2272227;61;954;-86
2022/08/29 05:22:35;173453.00;0.58;300.21;0.00;0.00;0.62;;;;;22.00;1.00;;;;;;2272244;61;1050;-86
2022/08/29 05:25:05;100901.00;0.34;175.13;0.00;0.00;0.62;;;;;22.10;1.00;;;;;;2272305;61;1462;-87
2022/08/29 05:27:32;67776.00;0.23;117.92;0.00;0.00;0.62;;;;;22.50;1.00;;;;;;2272184;61;1414;-86
2022/08/29 05:29:59;44268.00;0.15;77.27;0.00;0.00;0.62;;;;;23.30;1.00;;;;;;2272292;61;1395;-85
2022/08/29 05:32:26;92810.00;0.31;161.16;0.00;0.00;0.62;;;;;23.90;1.00;;;;;;2272320;61;1919;-86
2022/08/29 05:34:54;795691.00;2.65;1373.61;79108.00;0.26;137.50;;;;;24.30;1.00;;;;;;2272326;61;1381;-86
2022/08/29 05:37:22;1170117.00;3.90;2036.28;72590.00;0.24;126.24;;;;;24.80;1.00;;;;;;2272327;61;1498;-86
2022/08/29 05:39:50;1202461.00;4.01;2094.67;71294.00;0.24;124.00;;;;;25.30;1.00;;;;;;2272325;61;1062;-86
2022/08/29 05:42:20;1262306.00;4.21;2203.28;100251.00;0.33;174.01;;;;;25.90;1.00;;;;;;2272358;61;1050;-87
2022/08/29 05:44:48;1084278.00;3.61;1882.33;41980.00;0.14;73.31;;;;;26.20;1.00;;;;;;2272373;61;1271;-87
2022/08/29 05:47:17;778080.00;2.59;1342.92;79115.00;0.26;137.51;;;;;26.60;1.00;;;;;;2272267;61;2148;-87
2022/08/29 05:49:45;545953.00;1.82;940.98;71767.00;0.24;124.81;;;;;27.00;1.00;;;;;;2274437;61;1033;-87
2022/08/29 05:52:14;166266.00;0.55;287.83;68403.00;0.23;119.00;;;;;26.90;1.00;;;;;;2276325;61;1993;-87
2022/08/29 05:54:42;0.00;0.00;0.62;0.00;0.00;0.62;;;;;27.00;1.00;;;;;;2276383;61;1122;-88
2022/08/29 05:57:11;60172.00;0.20;104.77;0.00;0.00;0.62;;;;;27.60;1.00;;;;;;2276361;61;1406;-88
2022/08/29 05:59:40;80598.00;0.27;140.07;0.00;0.00;0.62;;;;;27.20;1.00;;;;;;2276208;61;1410;-87
2022/08/29 06:02:09;0.00;0.00;0.62;0.00;0.00;0.62;;;;;27.60;1.00;;;;;;2276266;61;1122;-88
2022/08/29 06:04:36;69618.00;0.23;121.10;0.00;0.00;0.62;;;;;28.70;1.00;;;;;;2276324;61;1520;-89
2022/08/29 06:18:55;733430.00;2.44;1265.26;33400.00;0.11;58.47;;;;;28.80;1.00;;;;;;2282139;60;1266;-88
2022/08/29 06:21:23;1483333.00;4.94;2611.80;83058.00;0.28;144.32;;;;;30.10;1.00;;;;;;2275664;60;1071;-87
2022/08/29 06:23:50;906797.00;3.02;1568.06;59040.00;0.20;102.82;;;;;30.10;1.00;;;;;;2275609;60;1239;-87
2022/08/29 06:26:19;904886.00;3.02;1564.70;120318.00;0.40;208.63;;;;;30.50;1.00;;;;;;2275571;60;1914;-89
2022/08/29 06:28:46;954958.00;3.18;1652.86;44357.00;0.15;77.43;;;;;31.20;1.00;;;;;;2275513;60;1564;-89
2022/08/29 06:31:16;1193769.00;3.98;2078.96;156174.00;0.52;270.45;;;;;31.00;1.00;;;;;;2275639;60;2087;-87
2022/08/29 06:33:43;650227.00;2.17;1121.03;69096.00;0.23;120.20;;;;;31.00;1.00;;;;;;2275651;61;996;-88
2022/08/29 06:36:13;1415660.00;4.72;2485.40;137537.00;0.46;238.32;;;;;31.20;1.00;;;;;;2275614;60;1422;-88
2022/08/29 06:38:40;964491.00;3.21;1669.68;120262.00;0.40;208.53;;;;;31.00;1.00;;;;;;2275568;60;1594;-88
2022/08/29 06:41:10;871488.00;2.90;1506.10;64679.00;0.22;112.56;;;;;31.10;1.00;;;;;;2275578;60;932;-89
2022/08/29 06:43:37;923222.00;3.08;1596.94;95566.00;0.32;165.92;;;;;30.50;1.00;;;;;;2275555;60;1424;-89
2022/08/29 06:46:04;762485.00;2.54;1315.77;65022.00;0.22;113.16;;;;;31.10;1.00;;;;;;2275605;60;1058;-89
2022/08/29 06:48:31;849762.00;2.83;1468.05;129779.00;0.43;224.95;;;;;31.70;1.00;;;;;;2275525;60;1998;-88
2022/08/29 06:51:01;279235.00;0.93;482.22;63986.00;0.21;111.37;;;;;31.80;1.00;;;;;;2275564;60;1517;-88
2022/08/29 06:53:30;307108.00;1.02;530.14;62522.00;0.21;108.84;;;;;32.10;1.00;;;;;;2275511;60;2154;-87
2022/08/29 06:56:02;481687.00;1.61;830.30;99202.00;0.33;172.19;;;;;31.90;1.00;;;;;;2275564;60;1013;-88
2022/08/29 06:58:29;286779.00;0.96;495.19;64428.00;0.21;112.13;;;;;32.20;1.00;;;;;;2275479;60;1446;-88
2022/08/29 07:00:56;292617.00;0.98;505.23;65034.00;0.22;113.18;;;;;32.40;1.00;;;;;;2275387;60;1543;-87
2022/08/29 07:03:23;374300.00;1.25;645.63;57468.00;0.19;100.10;;;;;32.70;1.00;;;;;;2275490;60;1024;-87
2022/08/29 07:05:52;186769.00;0.62;323.15;58672.00;0.20;102.18;;;;;32.40;1.00;;;;;;2275453;60;952;-88
2022/08/29 07:08:19;286376.00;0.95;494.50;54677.00;0.18;95.27;;;;;32.10;1.00;;;;;;2275164;60;2021;-85
2022/08/29 07:10:48;394792.00;1.32;680.85;121265.00;0.40;210.26;;;;;31.90;1.00;;;;;;2275223;60;1533;-86
2022/08/29 07:13:15;210878.00;0.70;364.65;62832.00;0.21;109.37;;;;;32.00;1.00;;;;;;2275384;60;1141;-86
2022/08/29 07:15:42;15454.00;0.05;27.40;0.00;0.00;0.62;;;;;32.00;1.00;;;;;;2275433;60;1033;-88
2022/08/29 07:18:09;3987.00;0.01;7.53;0.00;0.00;0.62;;;;;32.10;1.00;;;;;;2274426;60;2013;-87
2022/08/29 07:20:38;103251.00;0.34;179.18;0.00;0.00;0.62;;;;;32.70;1.00;;;;;;2272698;61;1459;-87
2022/08/29 07:23:05;0.00;0.00;0.62;0.00;0.00;0.62;;;;;33.10;1.00;;;;;;2272718;61;1070;-87
2022/08/29 07:25:33;137644.00;0.46;238.51;0.00;0.00;0.62;;;;;33.40;1.00;;;;;;2272522;61;1616;-87
2022/08/29 07:28:02;368658.00;1.23;635.93;0.00;0.00;0.62;;;;;33.20;1.00;;;;;;2272637;61;1993;-87
2022/08/29 07:30:29;40012.00;0.13;69.91;0.00;0.00;0.62;;;;;33.10;1.00;;;;;;2272768;61;975;-88
2022/08/29 07:32:56;249188.00;0.83;430.55;50913.00;0.17;88.77;;;;;32.20;1.00;;;;;;2272790;61;958;-87
2022/08/29 07:35:24;8024.00;0.03;14.53;0.00;0.00;0.62;;;;;32.50;1.00;;;;;;2272756;61;1033;-87
2022/08/29 07:37:51;42093.00;0.14;73.51;0.00;0.00;0.62;;;;;32.50;1.00;;;;;;2272695;61;1413;-87
2022/08/29 07:40:19;150405.00;0.50;260.51;0.00;0.00;0.62;;;;;32.80;1.00;;;;;;2272614;61;1061;-87
2022/08/29 07:42:46;18178.00;0.06;32.11;0.00;0.00;0.62;;;;;32.60;1.00;;;;;;2272630;61;1430;-86
2022/08/29 07:45:16;171481.00;0.57;296.82;0.00;0.00;0.62;;;;;32.80;1.00;;;;;;2272652;61;1114;-85
2022/08/29 07:47:44;0.00;0.00;0.62;0.00;0.00;0.62;;;;;33.10;1.00;;;;;;2272590;61;1987;-84
2022/08/29 07:50:13;139432.00;0.46;241.59;0.00;0.00;0.62;;;;;33.20;1.00;;;;;;2272385;61;1058;-85
2022/08/29 07:52:40;0.00;0.00;0.62;0.00;0.00;0.62;;;;;34.20;1.00;;;;;;2272662;61;1105;-86
2022/08/29 07:55:09;111649.00;0.37;193.68;0.00;0.00;0.62;;;;;34.30;1.00;;;;;;2272603;61;1487;-85
2022/08/29 07:57:36;33706.00;0.11;59.00;0.00;0.00;0.62;;;;;34.20;1.00;;;;;;2272610;61;1144;-83
2022/08/29 08:00:04;74727.00;0.25;129.93;0.00;0.00;0.62;;;;;34.00;1.00;;;;;;2272514;61;1253;-85
2022/08/29 08:02:32;0.00;0.00;0.62;0.00;0.00;0.62;;;;;34.00;1.00;;;;;;2272608;61;1154;-85
2022/08/29 08:04:59;63159.00;0.21;109.94;0.00;0.00;0.62;;;;;34.20;1.00;;;;;;2272655;61;1050;-84
2022/08/29 08:07:28;0.00;0.00;0.62;0.00;0.00;0.62;;;;;33.40;1.00;;;;;;2272506;61;2215;-85
2022/08/29 08:09:55;30087.00;0.10;52.73;0.00;0.00;0.62;;;;;33.80;1.00;;;;;;2272475;61;1285;-85
2022/08/29 08:12:24;36433.00;0.12;63.72;0.00;0.00;0.62;;;;;34.20;1.00;;;;;;2272555;61;1129;-85
2022/08/29 08:14:51;35344.00;0.12;61.83;0.00;0.00;0.62;;;;;34.00;1.00;;;;;;2272478;61;2096;-85
2022/08/29 08:17:18;0.00;0.00;0.62;0.00;0.00;0.62;;;;;34.00;1.00;;;;;;2272559;61;1023;-88
2022/08/29 08:19:46;6874.00;0.02;12.53;0.00;0.00;0.62;;;;;33.40;1.00;;;;;;2272548;61;1424;-84
2022/08/29 08:22:13;165629.00;0.55;286.74;0.00;0.00;0.62;;;;;33.10;1.00;;;;;;2272636;61;1168;-87
2022/08/29 08:24:40;153751.00;0.51;266.27;0.00;0.00;0.62;;;;;32.90;1.00;;;;;;2272520;61;1560;-89
2022/08/29 08:27:07;198705.00;0.66;343.69;0.00;0.00;0.62;;;;;33.40;1.00;;;;;;2272543;61;1912;-87
2022/08/29 08:29:34;475625.00;1.59;819.87;40567.00;0.14;70.87;;;;;33.00;1.00;;;;;;2272338;61;1559;-88
2022/08/29 08:32:01;174976.00;0.58;302.84;0.00;0.00;0.62;;;;;32.40;1.00;;;;;;2272480;61;1142;-88
2022/08/29 08:34:29;107108.00;0.36;185.84;0.00;0.00;0.62;;;;;32.70;1.00;;;;;;2272504;61;1402;-88
2022/08/29 08:36:57;153688.00;0.51;266.16;0.00;0.00;0.62;;;;;32.50;1.00;;;;;;2272445;61;1678;-89
2022/08/29 08:39:24;192750.00;0.64;333.44;47904.00;0.16;83.56;;;;;32.50;1.00;;;;;;2272458;61;1379;-87
2022/08/29 08:41:55;1155078.00;3.85;2009.21;151630.00;0.51;262.62;;;;;32.20;1.00;;;;;;2272557;61;1439;-88
2022/08/29 08:44:57;154625.00;0.52;267.78;29049.00;0.10;50.94;;;;;31.40;1.00;;;;;;2272552;61;1699;-88
2022/08/29 08:47:28;110578.00;0.37;191.83;0.00;0.00;0.62;;;;;30.60;1.00;;;;;;2272415;61;1980;-86
2022/08/29 08:50:00;209052.00;0.70;361.50;0.00;0.00;0.62;;;;;30.50;1.00;;;;;;2272430;61;1486;-88
2022/08/29 08:52:42;327071.00;1.09;564.45;0.00;0.00;0.62;;;;;30.20;1.00;;;;;;2272450;61;1065;-89
2022/08/29 08:55:20;13180.00;0.04;23.46;0.00;0.00;0.62;;;;;30.10;1.00;;;;;;2268465;61;1081;-87
2022/08/29 08:57:59;193064.00;0.64;333.98;0.00;0.00;0.62;;;;;30.40;1.00;;;;;;2268415;61;1446;-86
2022/08/29 09:00:30;140722.00;0.47;243.82;0.00;0.00;0.62;;;;;30.50;1.00;;;;;;2269993;56;3729;-89
2022/08/29 09:03:08;893741.00;2.98;1545.13;105977.00;0.35;183.89;;;;;30.20;1.00;;;;;;2272381;61;1108;-90
2022/08/29 09:05:55;677363.00;2.26;1168.01;0.00;0.00;0.62;;;;;30.00;1.00;;;;;;2272503;61;1054;-89
2022/08/29 09:08:37;555998.00;1.85;958.30;54224.00;0.18;94.49;;;;;30.00;1.00;;;;;;2272294;61;2017;-87
2022/08/29 09:11:13;100076.00;0.33;173.70;0.00;0.00;0.62;;;;;29.80;1.00;;;;;;2272446;61;1360;-88
2022/08/29 09:13:52;107789.00;0.36;187.01;0.00;0.00;0.62;;;;;29.30;1.00;;;;;;2272492;61;1030;-87
2022/08/29 09:16:25;41777.00;0.14;72.96;0.00;0.00;0.62;;;;;29.50;1.00;;;;;;2272396;61;1176;-86
2022/08/29 09:18:52;213848.00;0.71;369.76;0.00;0.00;0.62;;;;;29.60;1.00;;;;;;2272261;61;1375;-86
2022/08/29 09:21:22;33721.00;0.11;59.02;0.00;0.00;0.62;;;;;29.30;1.00;;;;;;2272283;61;1152;-88
2022/08/29 09:23:56;1010133.00;3.37;1750.43;125908.00;0.42;218.27;;;;;29.20;1.00;;;;;;2272473;61;1119;-89
2022/08/29 09:26:25;658602.00;2.20;1135.52;82922.00;0.28;144.08;;;;;29.00;1.00;;;;;;2272375;61;1596;-88
2022/08/29 09:31:24;1033455.00;3.44;1791.82;62522.00;0.21;108.84;;;;;28.40;1.00;;;;;;2269640;61;1380;-87
2022/08/29 09:33:53;743863.00;2.48;1283.39;24443.00;0.08;42.96;;;;;28.30;1.00;;;;;;2268219;61;1035;-87
2022/08/29 09:36:42;1481952.00;4.94;2609.21;272959.00;0.91;471.43;;;;;28.50;1.00;;;;;;2268222;61;1116;-88
2022/08/29 09:41:40;1165779.00;3.89;2028.47;97102.00;0.32;168.57;;;;;28.20;1.00;;;;;;2269525;61;1417;-89
2022/08/29 09:44:14;852756.00;2.84;1473.29;34206.00;0.11;59.86;;;;;28.20;1.00;;;;;;2268341;61;887;-87
2022/08/29 09:49:13;1152395.00;3.84;2004.38;39798.00;0.13;69.54;;;;;27.40;1.00;;;;;;2274195;61;1912;-89
2022/08/29 09:51:43;1251136.00;4.17;2182.95;0.00;0.00;0.62;;;;;27.60;1.00;;;;;;2272235;61;1184;-89
2022/08/29 09:54:16;1065790.00;3.55;1849.35;136655.00;0.46;236.80;;;;;28.10;1.00;;;;;;2272167;61;1975;-87
2022/08/29 09:56:52;917876.00;3.06;1587.54;88711.00;0.30;154.08;;;;;28.30;1.00;;;;;;2272184;61;1120;-87
2022/08/29 09:59:25;770419.00;2.57;1329.58;23779.00;0.08;41.81;;;;;28.20;1.00;;;;;;2268074;61;1506;-87
2022/08/29 10:02:17;676712.00;2.26;1166.88;30566.00;0.10;53.56;;;;;28.20;1.00;;;;;;2271840;61;1760;-87
2022/08/29 10:04:47;458392.00;1.53;790.22;27273.00;0.09;47.86;;;;;28.60;1.00;;;;;;2272224;61;1195;-88
2022/08/29 10:07:18;662052.00;2.21;1141.49;132339.00;0.44;229.36;;;;;28.40;1.00;;;;;;2272192;61;2029;-87
2022/08/29 10:09:59;121435208.00;404.78;72544152.00;30117.00;0.10;52.79;;;;;28.50;1.00;;;;;;2272105;61;1385;-88
2022/08/29 10:12:35;140369.00;0.47;243.21;0.00;0.00;0.62;;;;;28.50;1.00;;;;;;2272246;61;1216;-88
2022/08/29 10:15:09;0.00;0.00;0.62;0.00;0.00;0.62;;;;;28.30;1.00;;;;;;2272288;61;918;-89
2022/08/29 10:20:40;310040.00;1.03;535.18;105239.00;0.35;182.61;;;;;28.60;1.00;;;;;;2272303;61;696;-87